createdAt,value
2023-06-30T00:01:49.937Z,7.05
2023-06-30T00:05:34.824Z,7.35
2023-06-30T00:09:17.694Z,5.10
2023-06-30T00:13:00.413Z,4.18
2023-06-30T00:16:43.175Z,4.32
2023-06-30T00:20:25.861Z,4.78
2023-06-30T00:24:10.046Z,3.67
2023-06-30T00:27:52.797Z,4.70
2023-06-30T00:31:40.763Z,4.97
2023-06-30T00:35:23.569Z,5.15
2023-06-30T00:39:06.334Z,6.35
2023-06-30T00:42:50.440Z,5.30
2023-06-30T00:46:33.276Z,4.95
2023-06-30T00:50:16.205Z,7.82
2023-06-30T00:53:59.102Z,5.13
2023-06-30T00:57:41.768Z,6.15
2023-06-30T01:01:31.390Z,8.10
2023-06-30T01:05:19.722Z,5.30
2023-06-30T01:09:05.134Z,6.40
2023-06-30T01:12:48.136Z,4.85
2023-06-30T01:16:32.661Z,7.78
2023-06-30T01:20:17.088Z,4.03
2023-06-30T01:24:04.059Z,5.47
2023-06-30T01:27:47.066Z,8.25
2023-06-30T01:31:32.730Z,8.55
2023-06-30T01:35:16.841Z,8.68
2023-06-30T01:38:59.513Z,5.68
2023-06-30T01:42:42.394Z,7.35
2023-06-30T01:46:25.160Z,7.68
2023-06-30T01:50:08.607Z,5.78
2023-06-30T01:53:52.733Z,6.93
2023-06-30T01:57:35.594Z,4.53
2023-06-30T02:01:18.330Z,4.93
2023-06-30T02:05:01.080Z,5.10
2023-06-30T02:08:43.881Z,6.75
2023-06-30T02:12:30.894Z,6.03
2023-06-30T02:16:13.680Z,7.32
2023-06-30T02:19:56.397Z,5.15
2023-06-30T02:23:39.065Z,6.35
2023-06-30T02:27:21.834Z,4.88
2023-06-30T02:31:06.186Z,6.97
2023-06-30T02:34:48.920Z,9.68
2023-06-30T02:38:31.758Z,6.45
2023-06-30T02:42:14.477Z,6.50
2023-06-30T02:45:57.205Z,5.93
2023-06-30T02:49:41.304Z,7.97
2023-06-30T02:53:24.012Z,5.88
2023-06-30T02:57:06.985Z,8.00
2023-06-30T03:00:50.418Z,5.40
2023-06-30T03:04:33.309Z,6.15
2023-06-30T03:08:17.425Z,9.60
2023-06-30T03:12:00.125Z,6.70
2023-06-30T03:15:43.147Z,6.85
2023-06-30T03:19:26.172Z,8.32
2023-06-30T03:23:08.856Z,7.30
2023-06-30T03:26:52.915Z,7.38
2023-06-30T03:30:35.628Z,8.55
2023-06-30T03:34:18.359Z,11.43
2023-06-30T03:38:01.045Z,7.45
2023-06-30T03:41:43.812Z,10.77
2023-06-30T03:45:27.890Z,7.57
2023-06-30T03:49:10.605Z,7.53
2023-06-30T03:52:53.292Z,7.43
2023-06-30T03:56:35.944Z,7.65
2023-06-30T04:00:19.386Z,7.57
2023-06-30T04:04:04.048Z,9.57
2023-06-30T04:07:47.148Z,9.50
2023-06-30T04:11:29.904Z,11.60
2023-06-30T04:15:12.758Z,12.23
2023-06-30T04:18:56.104Z,9.68
2023-06-30T04:22:40.636Z,11.23
2023-06-30T04:26:23.341Z,12.60
2023-06-30T04:30:07.587Z,12.52
2023-06-30T04:33:50.612Z,13.13
2023-06-30T04:37:33.421Z,14.77
2023-06-30T04:41:17.794Z,17.23
2023-06-30T04:45:00.508Z,14.45
2023-06-30T04:48:43.304Z,17.90
2023-06-30T04:52:26.024Z,14.57
2023-06-30T04:56:08.737Z,15.50
2023-06-30T04:59:53.135Z,15.40
2023-06-30T05:03:35.926Z,17.92
2023-06-30T05:07:18.778Z,17.52
2023-06-30T05:11:01.819Z,18.58
2023-06-30T05:14:44.626Z,16.73
2023-06-30T05:18:28.726Z,15.07
2023-06-30T05:22:11.433Z,16.13
2023-06-30T05:25:54.166Z,18.30
2023-06-30T05:29:36.910Z,19.27
2023-06-30T05:33:19.635Z,14.07
2023-06-30T05:37:06.673Z,15.93
2023-06-30T05:40:49.495Z,16.08
2023-06-30T05:44:32.331Z,17.30
2023-06-30T05:48:15.118Z,15.43
2023-06-30T05:51:58.837Z,18.90
2023-06-30T05:55:43.145Z,15.10
2023-06-30T05:59:29.084Z,17.10
2023-06-30T06:03:12.015Z,15.50
2023-06-30T06:06:54.928Z,15.68
2023-06-30T06:10:37.674Z,17.60
2023-06-30T06:14:21.986Z,17.92
2023-06-30T06:18:04.962Z,17.38
2023-06-30T06:21:47.752Z,17.13
2023-06-30T06:25:30.461Z,16.38
2023-06-30T06:29:15.591Z,18.60
2023-06-30T06:32:59.758Z,18.25
2023-06-30T06:36:42.523Z,19.08
2023-06-30T06:40:25.466Z,19.48
2023-06-30T06:44:08.311Z,18.58
2023-06-30T06:48:24.048Z,18.02
2023-06-30T06:52:07.343Z,18.42
2023-06-30T06:55:50.770Z,22.73
2023-06-30T06:59:33.456Z,19.58
2023-06-30T07:03:16.580Z,23.17
2023-06-30T07:07:00.736Z,19.98
2023-06-30T07:10:44.692Z,21.38
2023-06-30T07:14:27.406Z,24.02
2023-06-30T07:18:10.272Z,22.13
2023-06-30T07:21:53.305Z,22.15
2023-06-30T07:25:37.388Z,22.70
2023-06-30T07:29:20.066Z,22.38
2023-06-30T07:33:02.797Z,20.75
2023-06-30T07:36:45.528Z,21.05
2023-06-30T07:40:32.668Z,24.08
2023-06-30T07:44:22.446Z,22.20
2023-06-30T07:48:05.947Z,23.95
2023-06-30T07:51:48.850Z,25.40
2023-06-30T07:55:33.757Z,20.92
2023-06-30T07:59:16.523Z,22.70
2023-06-30T08:03:00.837Z,26.25
2023-06-30T08:06:43.690Z,29.30
2023-06-30T08:10:26.424Z,24.98
2023-06-30T08:14:09.144Z,24.42
2023-06-30T08:17:56.888Z,23.92
2023-06-30T08:21:41.605Z,19.48
2023-06-30T08:25:24.987Z,19.67
2023-06-30T08:29:07.711Z,17.90
2023-06-30T08:32:50.497Z,16.23
2023-06-30T08:36:33.956Z,16.35
2023-06-30T08:40:21.351Z,14.77
2023-06-30T08:44:04.740Z,21.10
2023-06-30T08:47:47.651Z,16.55
2023-06-30T08:51:30.937Z,17.60
2023-06-30T08:55:13.832Z,13.90
2023-06-30T08:58:57.907Z,16.52
2023-06-30T09:02:41.223Z,19.10
2023-06-30T09:06:24.184Z,19.58
2023-06-30T09:10:10.280Z,19.33
2023-06-30T09:13:54.239Z,18.70
2023-06-30T09:17:38.377Z,20.00
2023-06-30T09:21:24.269Z,24.08
2023-06-30T09:25:42.029Z,23.15
2023-06-30T09:29:25.828Z,18.58
2023-06-30T09:33:10.370Z,21.77
2023-06-30T09:36:53.990Z,20.85
2023-06-30T09:40:36.736Z,21.98
2023-06-30T09:44:21.579Z,21.88
2023-06-30T09:48:07.797Z,20.33
2023-06-30T09:51:52.180Z,20.55
2023-06-30T09:55:34.871Z,21.80
2023-06-30T09:59:18.238Z,20.52
2023-06-30T10:03:05.220Z,22.67
2023-06-30T10:06:49.133Z,21.65
2023-06-30T10:10:33.285Z,20.73
2023-06-30T10:14:16.915Z,22.17
2023-06-30T10:18:00.577Z,25.20
2023-06-30T10:21:43.347Z,23.17
2023-06-30T10:25:27.285Z,24.20
2023-06-30T10:29:11.464Z,25.13
2023-06-30T10:32:55.363Z,23.77
2023-06-30T10:36:39.097Z,24.88
2023-06-30T10:40:30.325Z,23.02
2023-06-30T10:44:14.442Z,20.15
2023-06-30T10:47:57.388Z,20.25
2023-06-30T10:51:40.220Z,25.92
2023-06-30T10:55:23.976Z,21.00
2023-06-30T10:59:07.046Z,20.17
2023-06-30T11:02:52.009Z,22.48
2023-06-30T11:06:37.493Z,21.50
2023-06-30T11:10:38.885Z,16.52
2023-06-30T11:14:34.278Z,15.73
2023-06-30T11:18:21.952Z,16.08
2023-06-30T11:22:23.412Z,15.50
2023-06-30T11:26:14.257Z,13.18
2023-06-30T11:30:00.360Z,12.32
2023-06-30T11:33:45.471Z,12.52
2023-06-30T11:37:28.651Z,11.65
2023-06-30T11:41:11.447Z,12.75
2023-06-30T11:44:54.159Z,9.38
2023-06-30T11:48:41.204Z,12.70
2023-06-30T11:52:25.274Z,14.43
2023-06-30T11:56:08.091Z,15.13
2023-06-30T11:59:50.798Z,11.88
2023-06-30T12:03:33.621Z,11.98
2023-06-30T12:07:16.974Z,12.35
2023-06-30T12:11:02.499Z,12.40
2023-06-30T12:14:46.011Z,13.38
2023-06-30T12:18:37.882Z,14.18
2023-06-30T12:22:27.105Z,19.55
2023-06-30T12:26:11.593Z,12.35
2023-06-30T12:29:54.586Z,13.10
2023-06-30T12:33:38.381Z,13.85
2023-06-30T12:37:21.298Z,11.93
2023-06-30T12:41:04.498Z,12.77
2023-06-30T12:44:48.595Z,11.55
2023-06-30T12:48:31.835Z,12.35
2023-06-30T12:52:16.754Z,13.52
2023-06-30T12:55:59.560Z,13.13
2023-06-30T12:59:43.869Z,13.18
2023-06-30T13:03:29.401Z,13.45
2023-06-30T13:07:12.187Z,13.25
2023-06-30T13:10:56.222Z,12.85
2023-06-30T13:14:38.953Z,14.30
2023-06-30T13:18:21.728Z,13.23
2023-06-30T13:22:06.082Z,13.35
2023-06-30T13:25:49.627Z,14.95
2023-06-30T13:29:33.037Z,17.52
2023-06-30T13:33:15.883Z,15.70
2023-06-30T13:37:01.672Z,14.05
2023-06-30T13:40:46.102Z,15.05
2023-06-30T13:44:31.040Z,16.02
2023-06-30T13:48:14.037Z,15.90
2023-06-30T13:51:56.915Z,17.35
2023-06-30T13:55:39.691Z,17.80
2023-06-30T13:59:23.836Z,16.75
2023-06-30T14:03:06.656Z,20.77
2023-06-30T14:06:49.438Z,21.63
2023-06-30T14:10:32.458Z,22.15
2023-06-30T14:14:15.391Z,24.23
2023-06-30T14:17:59.578Z,24.30
2023-06-30T14:21:42.647Z,23.98
2023-06-30T14:25:26.232Z,23.42
2023-06-30T14:29:08.911Z,22.00
2023-06-30T14:32:51.686Z,23.63
2023-06-30T14:36:35.859Z,24.92
2023-06-30T14:40:19.483Z,21.60
2023-06-30T14:44:02.213Z,21.38
2023-06-30T14:47:44.951Z,20.30
2023-06-30T14:51:27.686Z,24.88
2023-06-30T14:55:12.084Z,21.80
2023-06-30T14:58:56.087Z,20.35
2023-06-30T15:02:38.971Z,22.80
2023-06-30T15:06:21.668Z,20.40
2023-06-30T15:10:04.915Z,16.40
2023-06-30T15:13:48.960Z,18.55
2023-06-30T15:17:32.057Z,19.73
2023-06-30T15:21:14.838Z,21.20
2023-06-30T15:24:58.070Z,20.50
2023-06-30T15:28:40.765Z,22.00
2023-06-30T15:32:24.977Z,19.33
2023-06-30T15:36:07.666Z,21.92
2023-06-30T15:39:50.398Z,22.83
2023-06-30T15:43:33.153Z,23.48
2023-06-30T15:47:15.927Z,23.95
2023-06-30T15:50:59.986Z,22.17
2023-06-30T15:54:42.714Z,26.88
2023-06-30T15:58:25.595Z,27.05
2023-06-30T16:02:08.336Z,23.77
2023-06-30T16:05:51.316Z,27.23
2023-06-30T16:09:35.413Z,27.50
2023-06-30T16:13:18.156Z,28.15
2023-06-30T16:17:03.104Z,27.27
2023-06-30T16:20:45.949Z,26.70
2023-06-30T16:24:28.615Z,22.80
2023-06-30T16:28:12.757Z,26.17
2023-06-30T16:31:55.656Z,25.40
2023-06-30T16:35:38.424Z,26.95
2023-06-30T16:39:21.097Z,24.75
2023-06-30T16:43:03.785Z,22.48
2023-06-30T16:46:47.873Z,22.35
2023-06-30T16:50:30.637Z,21.08
2023-06-30T16:54:13.326Z,23.45
2023-06-30T16:57:56.048Z,21.10
2023-06-30T17:01:41.761Z,21.65
2023-06-30T17:05:26.289Z,22.42
2023-06-30T17:09:09.046Z,19.75
2023-06-30T17:12:51.710Z,20.58
2023-06-30T17:16:34.522Z,22.13
2023-06-30T17:20:17.416Z,24.02
2023-06-30T17:24:01.591Z,23.40
2023-06-30T17:27:44.376Z,23.88
2023-06-30T17:31:27.240Z,21.90
2023-06-30T17:35:10.531Z,20.50
2023-06-30T17:38:55.087Z,26.73
2023-06-30T17:42:39.162Z,27.48
2023-06-30T17:46:21.924Z,28.77
2023-06-30T17:50:04.992Z,24.95
2023-06-30T17:53:47.721Z,23.85
2023-06-30T17:57:30.428Z,26.73
2023-06-30T18:01:14.521Z,25.80
2023-06-30T18:04:58.015Z,29.08
2023-06-30T18:08:40.881Z,26.30
2023-06-30T18:12:23.585Z,25.17
2023-06-30T18:16:06.644Z,27.83
2023-06-30T18:19:50.972Z,31.02
2023-06-30T18:23:33.800Z,32.35
2023-06-30T18:27:16.492Z,31.50
2023-06-30T18:30:59.165Z,31.42
2023-06-30T18:34:43.521Z,29.77
2023-06-30T18:38:27.576Z,28.45
2023-06-30T18:42:13.694Z,28.23
2023-06-30T18:45:57.042Z,27.33
2023-06-30T18:49:39.747Z,29.13
2023-06-30T18:53:24.248Z,26.65
2023-06-30T18:57:08.725Z,27.45
2023-06-30T19:00:51.438Z,29.42
2023-06-30T19:04:34.248Z,27.90
2023-06-30T19:08:17.064Z,26.77
2023-06-30T19:12:00.035Z,27.42
2023-06-30T19:15:46.246Z,27.23
2023-06-30T19:19:34.825Z,23.13
2023-06-30T19:23:18.757Z,26.27
2023-06-30T19:27:03.363Z,28.17
2023-06-30T19:30:47.765Z,26.45
2023-06-30T19:34:30.489Z,25.10
2023-06-30T19:38:13.303Z,27.77
2023-06-30T19:41:57.566Z,31.55
2023-06-30T19:45:43.168Z,25.05
2023-06-30T19:49:27.246Z,27.63
2023-06-30T19:53:10.022Z,27.85
2023-06-30T19:56:54.436Z,27.48
2023-06-30T20:00:37.221Z,27.23
2023-06-30T20:04:19.988Z,26.67
2023-06-30T20:08:04.384Z,27.30
2023-06-30T20:11:47.127Z,27.80
2023-06-30T20:15:29.918Z,24.88
2023-06-30T20:19:12.599Z,24.55
2023-06-30T20:22:55.398Z,23.52
2023-06-30T20:26:39.674Z,27.17
2023-06-30T20:30:22.525Z,29.33
2023-06-30T20:34:05.257Z,23.83
2023-06-30T20:37:48.075Z,28.50
2023-06-30T20:41:31.075Z,27.13
2023-06-30T20:45:15.286Z,26.60
2023-06-30T20:48:57.996Z,30.98
2023-06-30T20:52:43.144Z,31.92
2023-06-30T20:56:25.827Z,31.95
2023-06-30T21:00:09.998Z,32.22
2023-06-30T21:03:55.080Z,34.97
2023-06-30T21:07:37.846Z,30.57
2023-06-30T21:11:20.512Z,36.67
2023-06-30T21:15:03.590Z,44.35
2023-06-30T21:18:46.254Z,45.90
2023-06-30T21:22:30.346Z,51.65
2023-06-30T21:26:13.345Z,49.17
2023-06-30T21:29:56.097Z,47.58
2023-06-30T21:33:38.854Z,50.03
2023-06-30T21:37:21.617Z,54.88
2023-06-30T21:41:05.805Z,52.53
2023-06-30T21:44:48.517Z,53.70
2023-06-30T21:48:31.352Z,50.85
2023-06-30T21:52:14.096Z,48.17
2023-06-30T21:55:58.085Z,46.60
2023-06-30T21:59:42.252Z,45.38
2023-06-30T22:03:25.250Z,51.22
2023-06-30T22:07:08.035Z,44.60
2023-06-30T22:10:50.929Z,46.17
2023-06-30T22:14:33.762Z,40.88
2023-06-30T22:18:17.882Z,42.30
2023-06-30T22:22:00.674Z,41.95
2023-06-30T22:25:43.428Z,41.95
2023-06-30T22:29:26.223Z,42.63
2023-06-30T22:33:09.231Z,38.80
2023-06-30T22:36:53.322Z,40.22
2023-06-30T22:40:36.000Z,43.92
2023-06-30T22:44:18.725Z,41.28
2023-06-30T22:48:01.485Z,40.28
2023-06-30T22:51:44.241Z,39.50
2023-06-30T22:55:28.352Z,38.70
2023-06-30T22:59:14.124Z,38.87
2023-06-30T23:03:00.523Z,39.70
2023-06-30T23:06:43.602Z,39.07
2023-06-30T23:10:27.794Z,40.20
2023-06-30T23:14:10.558Z,40.53
2023-06-30T23:17:53.461Z,39.35
2023-06-30T23:21:37.211Z,39.80
2023-06-30T23:25:22.049Z,42.00
2023-06-30T23:29:07.129Z,41.15
2023-06-30T23:32:49.894Z,40.70
2023-06-30T23:36:36.365Z,40.40
2023-06-30T23:40:19.236Z,40.73
2023-06-30T23:44:02.441Z,42.00
2023-06-30T23:47:47.156Z,42.07
2023-06-30T23:51:29.926Z,40.83
2023-06-30T23:55:13.016Z,42.35
2023-06-30T23:58:55.816Z,39.47
